sensor_id;sensor_type;location;lat;lon;timestamp;temperature;humidity
26278;DHT22;14000;52.056;8.510;2023-03-01T00:01:52;-2.00;99.90
26278;DHT22;14000;52.056;8.510;2023-03-01T00:04:18;-2.10;99.90
26278;DHT22;14000;52.056;8.510;2023-03-01T00:06:43;-2.10;99.90
26278;DHT22;14000;52.056;8.510;2023-03-01T00:09:12;-2.10;99.90
26278;DHT22;14000;52.056;8.510;2023-03-01T00:11:38;-2.10;99.90
26278;DHT22;14000;52.056;8.510;2023-03-01T00:14:04;-2.20;99.90
26278;DHT22;14000;52.056;8.510;2023-03-01T00:16:34;-2.20;99.90
26278;DHT22;14000;52.056;8.510;2023-03-01T00:19:01;-2.20;99.90
26278;DHT22;14000;52.056;8.510;2023-03-01T00:21:27;-2.20;99.90
26278;DHT22;14000;52.056;8.510;2023-03-01T00:23:53;-2.20;99.90
26278;DHT22;14000;52.056;8.510;2023-03-01T00:26:21;-2.20;99.90
26278;DHT22;14000;52.056;8.510;2023-03-01T00:28:46;-2.20;99.90
26278;DHT22;14000;52.056;8.510;2023-03-01T00:31:16;-2.30;99.90
26278;DHT22;14000;52.056;8.510;2023-03-01T00:33:42;-2.30;99.90
26278;DHT22;14000;52.056;8.510;2023-03-01T00:36:08;0.00;99.90
26278;DHT22;14000;52.056;8.510;2023-03-01T00:38:36;-2.30;99.90
26278;DHT22;14000;52.056;8.510;2023-03-01T00:41:10;-2.30;99.90
26278;DHT22;14000;52.056;8.510;2023-03-01T00:43:36;-2.40;99.90
26278;DHT22;14000;52.056;8.510;2023-03-01T00:46:07;-2.40;99.90
26278;DHT22;14000;52.056;8.510;2023-03-01T00:48:34;-2.40;99.90
26278;DHT22;14000;52.056;8.510;2023-03-01T00:51:05;-2.40;99.90
26278;DHT22;14000;52.056;8.510;2023-03-01T00:53:31;-2.50;99.90
26278;DHT22;14000;52.056;8.510;2023-03-01T00:55:57;-2.40;99.90
26278;DHT22;14000;52.056;8.510;2023-03-01T00:58:23;-2.50;99.90
26278;DHT22;14000;52.056;8.510;2023-03-01T01:00:49;-2.50;99.90
26278;DHT22;14000;52.056;8.510;2023-03-01T01:03:14;-2.50;99.90
26278;DHT22;14000;52.056;8.510;2023-03-01T01:05:40;-2.50;99.90
26278;DHT22;14000;52.056;8.510;2023-03-01T01:08:05;-2.50;99.90
26278;DHT22;14000;52.056;8.510;2023-03-01T01:10:34;-2.50;99.90
26278;DHT22;14000;52.056;8.510;2023-03-01T01:12:59;-2.50;99.90
26278;DHT22;14000;52.056;8.510;2023-03-01T01:15:25;-2.60;99.90
26278;DHT22;14000;52.056;8.510;2023-03-01T01:17:51;-2.60;99.90
26278;DHT22;14000;52.056;8.510;2023-03-01T01:20:17;-2.60;99.90
26278;DHT22;14000;52.056;8.510;2023-03-01T01:22:42;-2.60;99.90
26278;DHT22;14000;52.056;8.510;2023-03-01T01:25:08;-2.60;99.90
26278;DHT22;14000;52.056;8.510;2023-03-01T01:27:34;-2.70;99.90
26278;DHT22;14000;52.056;8.510;2023-03-01T01:30:00;-2.70;99.90
26278;DHT22;14000;52.056;8.510;2023-03-01T01:32:25;-2.60;99.90
26278;DHT22;14000;52.056;8.510;2023-03-01T01:34:51;-2.70;99.90
26278;DHT22;14000;52.056;8.510;2023-03-01T01:37:16;-2.70;99.90
26278;DHT22;14000;52.056;8.510;2023-03-01T01:39:42;-2.70;99.90
26278;DHT22;14000;52.056;8.510;2023-03-01T01:42:15;-2.80;99.90
26278;DHT22;14000;52.056;8.510;2023-03-01T01:44:42;-2.70;99.90
26278;DHT22;14000;52.056;8.510;2023-03-01T01:47:14;-2.80;99.90
26278;DHT22;14000;52.056;8.510;2023-03-01T01:49:46;-2.80;99.90
26278;DHT22;14000;52.056;8.510;2023-03-01T01:55:04;-2.80;99.90
26278;DHT22;14000;52.056;8.510;2023-03-01T01:57:45;-2.80;99.90
26278;DHT22;14000;52.056;8.510;2023-03-01T02:00:15;-2.90;99.90
26278;DHT22;14000;52.056;8.510;2023-03-01T02:02:43;-2.90;99.90
26278;DHT22;14000;52.056;8.510;2023-03-01T02:05:17;-2.90;99.90
26278;DHT22;14000;52.056;8.510;2023-03-01T02:07:45;-2.90;99.90
26278;DHT22;14000;52.056;8.510;2023-03-01T02:10:11;-3.00;99.90
26278;DHT22;14000;52.056;8.510;2023-03-01T02:12:38;-3.00;99.90
26278;DHT22;14000;52.056;8.510;2023-03-01T02:15:05;-3.00;99.90
26278;DHT22;14000;52.056;8.510;2023-03-01T02:17:31;-3.00;99.90
26278;DHT22;14000;52.056;8.510;2023-03-01T02:22:44;-3.00;99.90
26278;DHT22;14000;52.056;8.510;2023-03-01T02:30:16;-3.10;99.90
26278;DHT22;14000;52.056;8.510;2023-03-01T02:32:42;-3.20;99.90
26278;DHT22;14000;52.056;8.510;2023-03-01T02:35:12;-3.20;99.90
26278;DHT22;14000;52.056;8.510;2023-03-01T02:37:39;-3.20;99.90
26278;DHT22;14000;52.056;8.510;2023-03-01T02:40:09;-3.20;99.90
26278;DHT22;14000;52.056;8.510;2023-03-01T02:42:50;-3.20;99.90
26278;DHT22;14000;52.056;8.510;2023-03-01T02:45:17;-3.30;99.90
26278;DHT22;14000;52.056;8.510;2023-03-01T02:47:43;-3.30;99.90
26278;DHT22;14000;52.056;8.510;2023-03-01T02:50:22;-3.30;99.90
26278;DHT22;14000;52.056;8.510;2023-03-01T02:53:05;-3.30;99.90
26278;DHT22;14000;52.056;8.510;2023-03-01T02:55:33;-3.40;99.90
26278;DHT22;14000;52.056;8.510;2023-03-01T02:58:00;-3.30;99.90
26278;DHT22;14000;52.056;8.510;2023-03-01T03:00:35;-3.40;99.90
26278;DHT22;14000;52.056;8.510;2023-03-01T03:03:01;-3.40;99.90
26278;DHT22;14000;52.056;8.510;2023-03-01T03:05:28;-3.40;99.90
26278;DHT22;14000;52.056;8.510;2023-03-01T03:07:55;-3.40;99.90
26278;DHT22;14000;52.056;8.510;2023-03-01T03:10:25;-3.40;99.90
26278;DHT22;14000;52.056;8.510;2023-03-01T03:12:57;-3.50;99.90
26278;DHT22;14000;52.056;8.510;2023-03-01T03:15:23;-3.50;99.90
26278;DHT22;14000;52.056;8.510;2023-03-01T03:17:50;-3.50;99.90
26278;DHT22;14000;52.056;8.510;2023-03-01T03:20:18;-3.50;99.90
26278;DHT22;14000;52.056;8.510;2023-03-01T03:22:46;-3.50;99.90
26278;DHT22;14000;52.056;8.510;2023-03-01T03:25:12;-3.50;99.90
26278;DHT22;14000;52.056;8.510;2023-03-01T03:27:39;-3.50;99.90
26278;DHT22;14000;52.056;8.510;2023-03-01T03:30:07;-3.40;99.90
26278;DHT22;14000;52.056;8.510;2023-03-01T03:32:35;-3.50;99.90
26278;DHT22;14000;52.056;8.510;2023-03-01T03:35:02;-3.50;99.90
26278;DHT22;14000;52.056;8.510;2023-03-01T03:37:27;-3.60;99.90
26278;DHT22;14000;52.056;8.510;2023-03-01T03:40:11;-3.60;99.90
26278;DHT22;14000;52.056;8.510;2023-03-01T03:42:40;-3.60;99.90
26278;DHT22;14000;52.056;8.510;2023-03-01T03:45:07;-3.70;99.90
26278;DHT22;14000;52.056;8.510;2023-03-01T03:47:32;-3.70;99.90
26278;DHT22;14000;52.056;8.510;2023-03-01T03:49:58;-3.70;99.90
26278;DHT22;14000;52.056;8.510;2023-03-01T03:52:23;-3.70;99.90
26278;DHT22;14000;52.056;8.510;2023-03-01T03:54:49;-3.70;99.90
26278;DHT22;14000;52.056;8.510;2023-03-01T03:57:14;-3.70;99.90
26278;DHT22;14000;52.056;8.510;2023-03-01T03:59:40;-3.70;99.90
26278;DHT22;14000;52.056;8.510;2023-03-01T04:02:06;-3.80;99.90
26278;DHT22;14000;52.056;8.510;2023-03-01T04:04:34;-3.80;99.90
26278;DHT22;14000;52.056;8.510;2023-03-01T04:07:00;-3.80;99.90
26278;DHT22;14000;52.056;8.510;2023-03-01T04:09:25;-3.80;99.90
26278;DHT22;14000;52.056;8.510;2023-03-01T04:11:51;-3.80;99.90
26278;DHT22;14000;52.056;8.510;2023-03-01T04:14:16;-3.80;99.90
26278;DHT22;14000;52.056;8.510;2023-03-01T04:16:42;-3.90;99.90
26278;DHT22;14000;52.056;8.510;2023-03-01T04:19:07;-3.90;99.90
26278;DHT22;14000;52.056;8.510;2023-03-01T04:21:34;-3.80;99.90
26278;DHT22;14000;52.056;8.510;2023-03-01T04:24:02;-3.90;99.90
26278;DHT22;14000;52.056;8.510;2023-03-01T04:26:29;-3.90;99.90
26278;DHT22;14000;52.056;8.510;2023-03-01T04:28:54;-3.90;99.90
26278;DHT22;14000;52.056;8.510;2023-03-01T04:31:20;-3.90;99.90
26278;DHT22;14000;52.056;8.510;2023-03-01T04:33:49;-3.90;99.90
26278;DHT22;14000;52.056;8.510;2023-03-01T04:36:18;-3.90;99.90
26278;DHT22;14000;52.056;8.510;2023-03-01T04:38:45;-3.90;99.90
26278;DHT22;14000;52.056;8.510;2023-03-01T04:41:19;-3.90;99.90
26278;DHT22;14000;52.056;8.510;2023-03-01T04:43:45;-3.90;99.90
26278;DHT22;14000;52.056;8.510;2023-03-01T04:46:13;-3.90;99.90
26278;DHT22;14000;52.056;8.510;2023-03-01T04:48:41;-3.90;99.90
26278;DHT22;14000;52.056;8.510;2023-03-01T04:51:07;-3.90;99.90
26278;DHT22;14000;52.056;8.510;2023-03-01T04:53:34;-3.90;99.90
26278;DHT22;14000;52.056;8.510;2023-03-01T04:56:03;-4.00;99.90
26278;DHT22;14000;52.056;8.510;2023-03-01T04:58:29;-4.00;99.90
26278;DHT22;14000;52.056;8.510;2023-03-01T05:00:55;-4.00;99.90
26278;DHT22;14000;52.056;8.510;2023-03-01T05:03:21;-4.00;99.90
26278;DHT22;14000;52.056;8.510;2023-03-01T05:05:49;-4.00;99.90
26278;DHT22;14000;52.056;8.510;2023-03-01T05:08:15;-4.10;99.90
26278;DHT22;14000;52.056;8.510;2023-03-01T05:10:50;-4.10;99.90
26278;DHT22;14000;52.056;8.510;2023-03-01T05:13:17;-4.10;99.90
26278;DHT22;14000;52.056;8.510;2023-03-01T05:15:57;-4.10;99.90
26278;DHT22;14000;52.056;8.510;2023-03-01T05:18:24;-4.20;99.90
26278;DHT22;14000;52.056;8.510;2023-03-01T05:21:00;-4.20;99.90
26278;DHT22;14000;52.056;8.510;2023-03-01T05:23:26;-4.30;99.90
26278;DHT22;14000;52.056;8.510;2023-03-01T05:25:52;-4.30;99.90
26278;DHT22;14000;52.056;8.510;2023-03-01T05:28:19;-4.30;99.90
26278;DHT22;14000;52.056;8.510;2023-03-01T05:30:46;-4.30;99.90
26278;DHT22;14000;52.056;8.510;2023-03-01T05:33:12;-4.30;99.90
26278;DHT22;14000;52.056;8.510;2023-03-01T05:35:42;-4.20;99.90
26278;DHT22;14000;52.056;8.510;2023-03-01T05:38:11;-4.30;99.90
26278;DHT22;14000;52.056;8.510;2023-03-01T05:40:39;-4.30;99.90
26278;DHT22;14000;52.056;8.510;2023-03-01T05:43:05;-4.30;99.90
26278;DHT22;14000;52.056;8.510;2023-03-01T05:45:31;-4.30;99.90
26278;DHT22;14000;52.056;8.510;2023-03-01T05:48:00;-4.30;99.90
26278;DHT22;14000;52.056;8.510;2023-03-01T05:50:28;-4.30;99.90
26278;DHT22;14000;52.056;8.510;2023-03-01T05:53:05;-4.30;99.90
26278;DHT22;14000;52.056;8.510;2023-03-01T05:55:33;-4.30;99.90
26278;DHT22;14000;52.056;8.510;2023-03-01T05:58:03;-4.30;99.90
26278;DHT22;14000;52.056;8.510;2023-03-01T06:00:30;-4.30;99.90
26278;DHT22;14000;52.056;8.510;2023-03-01T06:02:57;-4.40;99.90
26278;DHT22;14000;52.056;8.510;2023-03-01T06:05:23;-4.40;99.90
26278;DHT22;14000;52.056;8.510;2023-03-01T06:07:49;-4.40;99.90
26278;DHT22;14000;52.056;8.510;2023-03-01T06:10:15;-4.40;99.90
26278;DHT22;14000;52.056;8.510;2023-03-01T06:12:42;-4.40;99.90
26278;DHT22;14000;52.056;8.510;2023-03-01T06:15:11;-4.40;99.90
26278;DHT22;14000;52.056;8.510;2023-03-01T06:17:38;-4.40;99.90
26278;DHT22;14000;52.056;8.510;2023-03-01T06:22:33;-4.30;99.90
26278;DHT22;14000;52.056;8.510;2023-03-01T06:24:58;-4.30;99.90
26278;DHT22;14000;52.056;8.510;2023-03-01T06:27:24;-4.30;99.90
26278;DHT22;14000;52.056;8.510;2023-03-01T06:29:50;-4.30;99.90
26278;DHT22;14000;52.056;8.510;2023-03-01T06:32:16;-4.30;99.90
26278;DHT22;14000;52.056;8.510;2023-03-01T06:34:41;-4.30;99.90
26278;DHT22;14000;52.056;8.510;2023-03-01T06:37:07;-4.30;99.90
26278;DHT22;14000;52.056;8.510;2023-03-01T06:39:33;-4.30;99.90
26278;DHT22;14000;52.056;8.510;2023-03-01T06:41:59;-4.30;99.90
26278;DHT22;14000;52.056;8.510;2023-03-01T06:44:24;-4.30;99.90
26278;DHT22;14000;52.056;8.510;2023-03-01T06:46:50;-4.30;99.90
26278;DHT22;14000;52.056;8.510;2023-03-01T06:49:16;-4.30;99.90
26278;DHT22;14000;52.056;8.510;2023-03-01T06:51:44;-4.20;99.90
26278;DHT22;14000;52.056;8.510;2023-03-01T06:54:10;-4.20;99.90
26278;DHT22;14000;52.056;8.510;2023-03-01T06:56:36;-4.20;99.90
26278;DHT22;14000;52.056;8.510;2023-03-01T06:59:01;-4.20;99.90
26278;DHT22;14000;52.056;8.510;2023-03-01T07:01:28;-4.10;99.90
26278;DHT22;14000;52.056;8.510;2023-03-01T07:03:54;-4.10;99.90
26278;DHT22;14000;52.056;8.510;2023-03-01T07:06:20;-4.00;99.90
26278;DHT22;14000;52.056;8.510;2023-03-01T07:08:45;-4.00;99.90
26278;DHT22;14000;52.056;8.510;2023-03-01T07:11:11;-3.90;99.90
26278;DHT22;14000;52.056;8.510;2023-03-01T07:13:36;-3.90;99.90
26278;DHT22;14000;52.056;8.510;2023-03-01T07:16:02;-3.90;99.90
26278;DHT22;14000;52.056;8.510;2023-03-01T07:18:28;-3.90;99.90
26278;DHT22;14000;52.056;8.510;2023-03-01T07:20:53;-3.80;99.90
26278;DHT22;14000;52.056;8.510;2023-03-01T07:23:19;-3.80;99.90
26278;DHT22;14000;52.056;8.510;2023-03-01T07:25:51;-3.70;99.90
26278;DHT22;14000;52.056;8.510;2023-03-01T07:28:17;-3.70;99.90
26278;DHT22;14000;52.056;8.510;2023-03-01T07:30:42;-3.60;99.90
26278;DHT22;14000;52.056;8.510;2023-03-01T07:33:08;-3.60;99.90
26278;DHT22;14000;52.056;8.510;2023-03-01T07:35:33;-3.50;99.90
26278;DHT22;14000;52.056;8.510;2023-03-01T07:37:59;-3.40;99.90
26278;DHT22;14000;52.056;8.510;2023-03-01T07:40:25;-3.40;99.90
26278;DHT22;14000;52.056;8.510;2023-03-01T07:42:56;-3.30;99.90
26278;DHT22;14000;52.056;8.510;2023-03-01T07:45:24;-3.30;99.90
26278;DHT22;14000;52.056;8.510;2023-03-01T07:47:52;-3.20;99.90
26278;DHT22;14000;52.056;8.510;2023-03-01T07:50:19;-3.10;99.90
26278;DHT22;14000;52.056;8.510;2023-03-01T07:52:47;-3.00;99.90
26278;DHT22;14000;52.056;8.510;2023-03-01T07:55:16;-2.90;99.90
26278;DHT22;14000;52.056;8.510;2023-03-01T07:57:43;-2.70;99.90
26278;DHT22;14000;52.056;8.510;2023-03-01T08:00:11;-2.70;99.90
26278;DHT22;14000;52.056;8.510;2023-03-01T08:02:42;-2.50;99.90
26278;DHT22;14000;52.056;8.510;2023-03-01T08:05:10;-2.40;99.90
26278;DHT22;14000;52.056;8.510;2023-03-01T08:07:38;-2.20;99.90
26278;DHT22;14000;52.056;8.510;2023-03-01T08:10:07;-0.10;99.90
26278;DHT22;14000;52.056;8.510;2023-03-01T08:12:36;-2.00;99.90
26278;DHT22;14000;52.056;8.510;2023-03-01T08:15:03;-2.00;99.90
26278;DHT22;14000;52.056;8.510;2023-03-01T08:17:29;-1.90;99.90
26278;DHT22;14000;52.056;8.510;2023-03-01T08:19:56;-1.80;99.90
26278;DHT22;14000;52.056;8.510;2023-03-01T08:22:22;-1.70;99.90
26278;DHT22;14000;52.056;8.510;2023-03-01T08:24:48;-1.60;99.90
26278;DHT22;14000;52.056;8.510;2023-03-01T08:27:16;-1.50;99.90
26278;DHT22;14000;52.056;8.510;2023-03-01T08:29:43;-1.50;99.90
26278;DHT22;14000;52.056;8.510;2023-03-01T08:32:10;-1.40;99.90
26278;DHT22;14000;52.056;8.510;2023-03-01T08:34:49;-1.30;99.90
26278;DHT22;14000;52.056;8.510;2023-03-01T08:37:21;-1.20;99.90
26278;DHT22;14000;52.056;8.510;2023-03-01T08:39:47;-1.10;99.90
26278;DHT22;14000;52.056;8.510;2023-03-01T08:42:14;-1.00;99.90
26278;DHT22;14000;52.056;8.510;2023-03-01T08:44:44;-0.90;99.90
26278;DHT22;14000;52.056;8.510;2023-03-01T08:47:09;-0.80;99.90
26278;DHT22;14000;52.056;8.510;2023-03-01T08:49:35;-0.80;99.90
26278;DHT22;14000;52.056;8.510;2023-03-01T08:52:02;-0.70;99.90
26278;DHT22;14000;52.056;8.510;2023-03-01T08:54:28;0.50;99.90
26278;DHT22;14000;52.056;8.510;2023-03-01T08:56:58;-0.40;99.90
26278;DHT22;14000;52.056;8.510;2023-03-01T08:59:29;-0.30;99.90
26278;DHT22;14000;52.056;8.510;2023-03-01T09:02:04;0.20;99.90
26278;DHT22;14000;52.056;8.510;2023-03-01T09:04:31;-0.20;99.90
26278;DHT22;14000;52.056;8.510;2023-03-01T09:06:59;-0.10;99.90
26278;DHT22;14000;52.056;8.510;2023-03-01T09:09:30;-0.10;99.90
26278;DHT22;14000;52.056;8.510;2023-03-01T09:11:57;-0.10;99.90
26278;DHT22;14000;52.056;8.510;2023-03-01T09:14:23;0.00;99.90
26278;DHT22;14000;52.056;8.510;2023-03-01T09:16:49;0.10;99.90
26278;DHT22;14000;52.056;8.510;2023-03-01T09:19:16;0.20;99.90
26278;DHT22;14000;52.056;8.510;2023-03-01T09:21:42;0.30;99.90
26278;DHT22;14000;52.056;8.510;2023-03-01T09:24:20;0.50;99.90
26278;DHT22;14000;52.056;8.510;2023-03-01T09:26:46;0.60;99.90
26278;DHT22;14000;52.056;8.510;2023-03-01T09:29:15;0.60;99.90
26278;DHT22;14000;52.056;8.510;2023-03-01T09:31:41;0.70;99.90
26278;DHT22;14000;52.056;8.510;2023-03-01T09:34:08;0.80;99.90
26278;DHT22;14000;52.056;8.510;2023-03-01T09:36:35;1.00;99.90
26278;DHT22;14000;52.056;8.510;2023-03-01T09:39:01;1.00;99.90
26278;DHT22;14000;52.056;8.510;2023-03-01T09:41:58;1.20;99.90
26278;DHT22;14000;52.056;8.510;2023-03-01T09:44:41;1.20;99.90
26278;DHT22;14000;52.056;8.510;2023-03-01T09:47:32;1.40;99.90
26278;DHT22;14000;52.056;8.510;2023-03-01T09:50:04;3.20;99.90
26278;DHT22;14000;52.056;8.510;2023-03-01T09:55:11;2.00;99.90
26278;DHT22;14000;52.056;8.510;2023-03-01T09:57:54;2.10;99.90
26278;DHT22;14000;52.056;8.510;2023-03-01T10:00:41;2.30;99.90
26278;DHT22;14000;52.056;8.510;2023-03-01T10:03:22;2.40;99.90
26278;DHT22;14000;52.056;8.510;2023-03-01T10:08:50;2.40;99.90
26278;DHT22;14000;52.056;8.510;2023-03-01T10:14:12;2.70;99.90
26278;DHT22;14000;52.056;8.510;2023-03-01T10:16:50;2.60;99.90
26278;DHT22;14000;52.056;8.510;2023-03-01T10:19:24;2.60;99.90
26278;DHT22;14000;52.056;8.510;2023-03-01T10:21:53;2.80;99.90
26278;DHT22;14000;52.056;8.510;2023-03-01T10:24:20;2.90;99.90
26278;DHT22;14000;52.056;8.510;2023-03-01T10:26:54;2.90;99.90
26278;DHT22;14000;52.056;8.510;2023-03-01T10:29:25;3.10;99.90
26278;DHT22;14000;52.056;8.510;2023-03-01T10:31:52;3.30;99.90
26278;DHT22;14000;52.056;8.510;2023-03-01T10:34:21;3.40;99.90
26278;DHT22;14000;52.056;8.510;2023-03-01T10:36:53;3.40;99.90
26278;DHT22;14000;52.056;8.510;2023-03-01T10:39:24;3.50;99.90
26278;DHT22;14000;52.056;8.510;2023-03-01T10:41:58;3.60;99.90
26278;DHT22;14000;52.056;8.510;2023-03-01T10:44:43;3.70;99.90
26278;DHT22;14000;52.056;8.510;2023-03-01T10:47:35;3.70;99.90
26278;DHT22;14000;52.056;8.510;2023-03-01T10:50:03;3.70;99.90
26278;DHT22;14000;52.056;8.510;2023-03-01T10:52:35;3.70;99.90
26278;DHT22;14000;52.056;8.510;2023-03-01T10:55:36;3.80;99.90
26278;DHT22;14000;52.056;8.510;2023-03-01T11:00:54;4.00;99.90
26278;DHT22;14000;52.056;8.510;2023-03-01T11:03:26;4.00;99.90
26278;DHT22;14000;52.056;8.510;2023-03-01T11:06:35;4.00;99.90
26278;DHT22;14000;52.056;8.510;2023-03-01T11:08:46;4.00;99.90
26278;DHT22;14000;52.056;8.510;2023-03-01T11:11:29;4.10;99.90
26278;DHT22;14000;52.056;8.510;2023-03-01T11:14:12;4.20;99.90
26278;DHT22;14000;52.056;8.510;2023-03-01T11:16:42;4.10;99.90
26278;DHT22;14000;52.056;8.510;2023-03-01T11:24:12;4.40;99.90
26278;DHT22;14000;52.056;8.510;2023-03-01T11:26:41;4.40;99.90
26278;DHT22;14000;52.056;8.510;2023-03-01T11:29:16;4.50;99.90
26278;DHT22;14000;52.056;8.510;2023-03-01T11:31:43;4.70;99.90
26278;DHT22;14000;52.056;8.510;2023-03-01T11:34:16;4.70;99.90
26278;DHT22;14000;52.056;8.510;2023-03-01T11:36:53;4.70;99.90
26278;DHT22;14000;52.056;8.510;2023-03-01T11:39:39;4.70;99.90
26278;DHT22;14000;52.056;8.510;2023-03-01T11:45:11;5.20;99.90
26278;DHT22;14000;52.056;8.510;2023-03-01T11:47:59;6.90;99.90
26278;DHT22;14000;52.056;8.510;2023-03-01T12:07:06;16.60;99.90
26278;DHT22;14000;52.056;8.510;2023-03-01T12:09:56;15.90;99.90
26278;DHT22;14000;52.056;8.510;2023-03-01T12:12:32;14.70;99.90
26278;DHT22;14000;52.056;8.510;2023-03-01T12:17:54;10.60;99.90
26278;DHT22;14000;52.056;8.510;2023-03-01T12:20:46;10.00;99.90
26278;DHT22;14000;52.056;8.510;2023-03-01T12:34:25;9.90;99.90
26278;DHT22;14000;52.056;8.510;2023-03-01T12:37:21;9.50;99.90
26278;DHT22;14000;52.056;8.510;2023-03-01T12:40:03;9.70;99.90
26278;DHT22;14000;52.056;8.510;2023-03-01T12:51:04;8.80;99.90
26278;DHT22;14000;52.056;8.510;2023-03-01T12:53:35;8.80;99.90
26278;DHT22;14000;52.056;8.510;2023-03-01T12:56:05;8.60;99.90
26278;DHT22;14000;52.056;8.510;2023-03-01T12:58:32;8.70;99.90
26278;DHT22;14000;52.056;8.510;2023-03-01T13:15:32;8.50;99.90
26278;DHT22;14000;52.056;8.510;2023-03-01T13:26:07;8.70;99.90
26278;DHT22;14000;52.056;8.510;2023-03-01T13:46:52;8.50;99.90
26278;DHT22;14000;52.056;8.510;2023-03-01T13:49:22;8.60;99.90
26278;DHT22;14000;52.056;8.510;2023-03-01T13:51:50;8.60;99.90
26278;DHT22;14000;52.056;8.510;2023-03-01T13:54:29;8.80;99.90
26278;DHT22;14000;52.056;8.510;2023-03-01T13:56:55;8.80;99.90
26278;DHT22;14000;52.056;8.510;2023-03-01T13:59:22;9.10;99.90
26278;DHT22;14000;52.056;8.510;2023-03-01T14:01:59;9.40;99.90
26278;DHT22;14000;52.056;8.510;2023-03-01T14:04:32;9.60;99.90
26278;DHT22;14000;52.056;8.510;2023-03-01T14:07:22;9.50;99.90
26278;DHT22;14000;52.056;8.510;2023-03-01T14:09:54;9.50;99.90
26278;DHT22;14000;52.056;8.510;2023-03-01T14:20:38;10.10;99.90
26278;DHT22;14000;52.056;8.510;2023-03-01T14:23:11;10.30;99.90
26278;DHT22;14000;52.056;8.510;2023-03-01T14:25:38;10.50;99.90
26278;DHT22;14000;52.056;8.510;2023-03-01T14:28:20;10.60;99.90
26278;DHT22;14000;52.056;8.510;2023-03-01T14:30:49;10.80;99.90
26278;DHT22;14000;52.056;8.510;2023-03-01T14:33:28;10.70;99.90
26278;DHT22;14000;52.056;8.510;2023-03-01T14:36:11;10.60;99.90
26278;DHT22;14000;52.056;8.510;2023-03-01T14:38:43;10.60;99.90
26278;DHT22;14000;52.056;8.510;2023-03-01T14:41:23;10.60;99.90
26278;DHT22;14000;52.056;8.510;2023-03-01T14:43:58;10.20;99.90
26278;DHT22;14000;52.056;8.510;2023-03-01T14:49:19;9.80;99.90
26278;DHT22;14000;52.056;8.510;2023-03-01T14:51:53;9.80;99.90
26278;DHT22;14000;52.056;8.510;2023-03-01T14:57:12;10.20;99.90
26278;DHT22;14000;52.056;8.510;2023-03-01T14:59:44;10.00;99.90
26278;DHT22;14000;52.056;8.510;2023-03-01T15:02:17;10.00;99.90
26278;DHT22;14000;52.056;8.510;2023-03-01T15:04:54;10.10;99.90
26278;DHT22;14000;52.056;8.510;2023-03-01T15:07:30;10.20;99.90
26278;DHT22;14000;52.056;8.510;2023-03-01T15:09:59;9.80;99.90
26278;DHT22;14000;52.056;8.510;2023-03-01T15:14:55;9.30;99.90
26278;DHT22;14000;52.056;8.510;2023-03-01T15:17:33;9.20;99.90
26278;DHT22;14000;52.056;8.510;2023-03-01T15:20:17;9.30;99.90
26278;DHT22;14000;52.056;8.510;2023-03-01T15:22:46;9.30;99.90
26278;DHT22;14000;52.056;8.510;2023-03-01T15:25:19;9.50;99.90
26278;DHT22;14000;52.056;8.510;2023-03-01T15:27:49;9.50;99.90
26278;DHT22;14000;52.056;8.510;2023-03-01T15:30:23;9.50;99.90
26278;DHT22;14000;52.056;8.510;2023-03-01T15:33:17;9.20;99.90
26278;DHT22;14000;52.056;8.510;2023-03-01T15:35:49;9.10;99.90
26278;DHT22;14000;52.056;8.510;2023-03-01T15:38:31;9.20;99.90
26278;DHT22;14000;52.056;8.510;2023-03-01T15:41:03;9.20;99.90
26278;DHT22;14000;52.056;8.510;2023-03-01T15:43:46;9.10;99.90
26278;DHT22;14000;52.056;8.510;2023-03-01T15:46:29;9.00;99.90
26278;DHT22;14000;52.056;8.510;2023-03-01T15:49:02;8.80;99.90
26278;DHT22;14000;52.056;8.510;2023-03-01T15:51:35;8.70;99.90
26278;DHT22;14000;52.056;8.510;2023-03-01T15:54:22;8.90;99.90
26278;DHT22;14000;52.056;8.510;2023-03-01T15:56:49;8.80;99.90
26278;DHT22;14000;52.056;8.510;2023-03-01T15:59:15;8.80;99.90
26278;DHT22;14000;52.056;8.510;2023-03-01T16:01:41;8.90;99.90
26278;DHT22;14000;52.056;8.510;2023-03-01T16:04:09;8.80;99.90
26278;DHT22;14000;52.056;8.510;2023-03-01T16:06:37;8.60;99.90
26278;DHT22;14000;52.056;8.510;2023-03-01T16:09:04;8.40;99.90
26278;DHT22;14000;52.056;8.510;2023-03-01T16:11:30;8.40;99.90
26278;DHT22;14000;52.056;8.510;2023-03-01T16:13:57;8.40;99.90
26278;DHT22;14000;52.056;8.510;2023-03-01T16:16:23;8.30;99.90
26278;DHT22;14000;52.056;8.510;2023-03-01T16:18:49;8.20;99.90
26278;DHT22;14000;52.056;8.510;2023-03-01T16:21:25;8.00;99.90
26278;DHT22;14000;52.056;8.510;2023-03-01T16:23:51;7.80;99.90
26278;DHT22;14000;52.056;8.510;2023-03-01T16:26:17;7.70;99.90
26278;DHT22;14000;52.056;8.510;2023-03-01T16:28:44;7.60;99.90
26278;DHT22;14000;52.056;8.510;2023-03-01T16:31:11;7.40;99.90
26278;DHT22;14000;52.056;8.510;2023-03-01T16:33:37;7.20;99.90
26278;DHT22;14000;52.056;8.510;2023-03-01T16:36:08;7.10;99.90
26278;DHT22;14000;52.056;8.510;2023-03-01T16:38:34;7.10;99.90
26278;DHT22;14000;52.056;8.510;2023-03-01T16:41:00;7.10;99.90
26278;DHT22;14000;52.056;8.510;2023-03-01T16:43:26;6.90;99.90
26278;DHT22;14000;52.056;8.510;2023-03-01T16:45:51;6.80;99.90
26278;DHT22;14000;52.056;8.510;2023-03-01T16:48:17;6.70;99.90
26278;DHT22;14000;52.056;8.510;2023-03-01T16:50:43;6.60;99.90
26278;DHT22;14000;52.056;8.510;2023-03-01T16:53:09;6.50;99.90
26278;DHT22;14000;52.056;8.510;2023-03-01T16:55:34;6.30;99.90
26278;DHT22;14000;52.056;8.510;2023-03-01T16:58:01;6.20;99.90
26278;DHT22;14000;52.056;8.510;2023-03-01T17:00:27;6.10;99.90
26278;DHT22;14000;52.056;8.510;2023-03-01T17:02:53;6.00;99.90
26278;DHT22;14000;52.056;8.510;2023-03-01T17:05:19;5.90;99.90
26278;DHT22;14000;52.056;8.510;2023-03-01T17:07:46;5.70;99.90
26278;DHT22;14000;52.056;8.510;2023-03-01T17:10:11;5.60;99.90
26278;DHT22;14000;52.056;8.510;2023-03-01T17:12:38;5.50;99.90
26278;DHT22;14000;52.056;8.510;2023-03-01T17:15:05;5.50;99.90
26278;DHT22;14000;52.056;8.510;2023-03-01T17:17:31;5.40;99.90
26278;DHT22;14000;52.056;8.510;2023-03-01T17:19:56;5.30;99.90
26278;DHT22;14000;52.056;8.510;2023-03-01T17:22:22;5.20;99.90
26278;DHT22;14000;52.056;8.510;2023-03-01T17:24:48;5.10;99.90
26278;DHT22;14000;52.056;8.510;2023-03-01T17:27:13;5.00;99.90
26278;DHT22;14000;52.056;8.510;2023-03-01T17:29:40;5.00;99.90
26278;DHT22;14000;52.056;8.510;2023-03-01T17:32:06;4.90;99.90
26278;DHT22;14000;52.056;8.510;2023-03-01T17:34:33;4.80;99.90
26278;DHT22;14000;52.056;8.510;2023-03-01T17:36:58;4.80;99.90
26278;DHT22;14000;52.056;8.510;2023-03-01T17:39:24;4.60;99.90
26278;DHT22;14000;52.056;8.510;2023-03-01T17:41:53;4.50;99.90
26278;DHT22;14000;52.056;8.510;2023-03-01T17:44:19;4.50;99.90
26278;DHT22;14000;52.056;8.510;2023-03-01T17:46:45;4.40;99.90
26278;DHT22;14000;52.056;8.510;2023-03-01T17:49:11;4.20;99.90
26278;DHT22;14000;52.056;8.510;2023-03-01T17:51:37;4.20;99.90
26278;DHT22;14000;52.056;8.510;2023-03-01T17:54:03;4.20;99.90
26278;DHT22;14000;52.056;8.510;2023-03-01T17:56:29;4.20;99.90
26278;DHT22;14000;52.056;8.510;2023-03-01T17:58:56;4.20;99.90
26278;DHT22;14000;52.056;8.510;2023-03-01T18:01:21;4.20;99.90